createdAt,value
2017-09-27T00:00:34.820Z,186.17
2017-09-27T00:03:03.984Z,205.62
2017-09-27T00:05:31.660Z,141.33
2017-09-27T00:07:59.256Z,140.30
2017-09-27T00:10:26.883Z,138.10
2017-09-27T00:12:54.456Z,163.23
2017-09-27T00:15:22.805Z,122.37
2017-09-27T00:17:50.405Z,128.07
2017-09-27T00:20:18.745Z,117.50
2017-09-27T00:22:46.340Z,163.93
2017-09-27T00:25:14.685Z,130.12
2017-09-27T00:27:42.280Z,151.40
2017-09-27T00:30:10.648Z,172.97
2017-09-27T00:32:38.264Z,138.47
2017-09-27T00:35:05.846Z,183.50
2017-09-27T00:37:33.416Z,156.57
2017-09-27T00:40:03.044Z,285.60
2017-09-27T00:42:31.384Z,147.27
2017-09-27T00:44:58.979Z,197.15
2017-09-27T00:47:26.552Z,231.80
2017-09-27T00:49:55.231Z,192.07
2017-09-27T00:52:23.577Z,154.77
2017-09-27T00:54:51.157Z,135.00
2017-09-27T00:57:18.828Z,142.40
2017-09-27T00:59:46.420Z,126.40
2017-09-27T01:02:13.995Z,135.53
2017-09-27T01:04:41.569Z,169.33
2017-09-27T01:07:09.168Z,167.37
2017-09-27T01:09:36.834Z,120.47
2017-09-27T01:12:04.449Z,148.07
2017-09-27T01:14:32.319Z,163.90
2017-09-27T01:17:00.092Z,160.30
2017-09-27T01:19:27.839Z,156.80
2017-09-27T01:21:55.679Z,157.47
2017-09-27T01:24:23.583Z,154.20
2017-09-27T01:26:51.165Z,226.03
2017-09-27T01:29:18.848Z,170.53
2017-09-27T01:31:46.420Z,188.37
2017-09-27T01:34:14.889Z,210.18
2017-09-27T01:36:42.464Z,170.50
2017-09-27T01:39:10.817Z,150.25
2017-09-27T01:41:38.492Z,252.33
2017-09-27T01:44:06.076Z,175.50
2017-09-27T01:46:34.536Z,208.60
2017-09-27T01:49:03.885Z,203.77
2017-09-27T01:51:31.496Z,259.00
2017-09-27T01:53:59.068Z,263.65
2017-09-27T01:56:26.640Z,199.37
2017-09-27T01:58:55.000Z,334.83
2017-09-27T02:01:22.648Z,277.50
2017-09-27T02:03:50.241Z,229.73
2017-09-27T02:06:18.592Z,213.37
2017-09-27T02:08:46.265Z,238.23
2017-09-27T02:11:13.927Z,229.90
2017-09-27T02:13:41.800Z,303.83
2017-09-27T02:16:09.376Z,216.57
2017-09-27T02:18:37.717Z,263.40
2017-09-27T02:21:05.311Z,234.00
2017-09-27T02:23:33.655Z,302.90
2017-09-27T02:26:02.997Z,352.13
2017-09-27T02:28:31.356Z,293.13
2017-09-27T02:30:58.937Z,255.83
2017-09-27T02:33:27.400Z,278.33
2017-09-27T02:35:54.973Z,204.70
2017-09-27T02:38:23.345Z,187.43
2017-09-27T02:40:51.716Z,404.70
2017-09-27T02:43:19.381Z,409.98
2017-09-27T02:45:46.956Z,402.03
2017-09-27T02:48:15.400Z,352.80
2017-09-27T02:50:43.080Z,321.45
2017-09-27T02:53:10.693Z,346.13
2017-09-27T02:55:38.593Z,236.97
2017-09-27T02:58:06.168Z,256.93
2017-09-27T03:00:33.767Z,269.27
2017-09-27T03:03:02.815Z,225.50
2017-09-27T03:05:30.425Z,300.27
2017-09-27T03:07:57.999Z,369.00
2017-09-27T03:10:25.596Z,372.40
2017-09-27T03:12:53.281Z,376.80
2017-09-27T03:15:21.247Z,277.73
2017-09-27T03:17:49.583Z,332.13
2017-09-27T03:20:17.188Z,297.67
2017-09-27T03:22:44.788Z,211.00
2017-09-27T03:25:12.362Z,199.07
2017-09-27T03:27:39.964Z,296.83
2017-09-27T03:30:07.536Z,401.42
2017-09-27T03:32:35.895Z,280.93
2017-09-27T03:35:07.043Z,267.00
2017-09-27T03:37:35.023Z,399.23
2017-09-27T03:40:03.911Z,412.70
2017-09-27T03:42:33.000Z,529.60
2017-09-27T03:45:03.041Z,478.23
2017-09-27T03:47:31.379Z,484.00
2017-09-27T03:49:58.979Z,409.30
2017-09-27T03:52:27.336Z,338.67
2017-09-27T03:54:55.701Z,392.80
2017-09-27T03:57:23.281Z,417.00
2017-09-27T03:59:50.880Z,421.00
2017-09-27T04:02:18.460Z,311.90
2017-09-27T04:04:46.076Z,349.23
2017-09-27T04:07:15.168Z,316.43
2017-09-27T04:09:42.811Z,331.20
2017-09-27T04:12:10.384Z,253.55
2017-09-27T04:14:38.051Z,366.63
2017-09-27T04:17:05.628Z,325.20
2017-09-27T04:19:34.360Z,205.70
2017-09-27T04:22:03.695Z,315.97
2017-09-27T04:24:31.290Z,298.30
2017-09-27T04:26:59.628Z,341.47
2017-09-27T04:29:27.224Z,327.33
2017-09-27T04:31:55.584Z,375.57
2017-09-27T04:34:23.952Z,412.37
2017-09-27T04:36:51.523Z,377.63
2017-09-27T04:39:20.063Z,436.58
2017-09-27T04:41:47.634Z,421.50
2017-09-27T04:44:15.228Z,488.73
2017-09-27T04:46:42.828Z,402.20
2017-09-27T04:49:10.400Z,333.40
2017-09-27T04:51:38.608Z,492.50
2017-09-27T04:54:06.180Z,387.33
2017-09-27T04:56:33.752Z,314.53
2017-09-27T04:59:02.944Z,455.20
2017-09-27T05:01:31.324Z,387.73
2017-09-27T05:03:58.928Z,380.20
2017-09-27T05:06:26.553Z,322.23
2017-09-27T05:08:54.940Z,346.37
2017-09-27T05:11:23.280Z,371.33
2017-09-27T05:13:50.851Z,304.00
2017-09-27T05:16:18.561Z,343.80
2017-09-27T05:18:46.132Z,222.57
2017-09-27T05:21:14.620Z,194.50
2017-09-27T05:23:42.340Z,319.40
2017-09-27T05:26:09.952Z,329.23
2017-09-27T05:28:37.525Z,378.87
2017-09-27T05:31:05.129Z,230.85
2017-09-27T05:33:33.504Z,296.87
2017-09-27T05:36:02.908Z,307.12
2017-09-27T05:38:30.484Z,302.07
2017-09-27T05:40:58.843Z,213.12
2017-09-27T05:43:26.414Z,326.63
2017-09-27T05:45:54.780Z,259.30
2017-09-27T05:48:23.876Z,222.67
2017-09-27T05:50:51.476Z,157.47
2017-09-27T05:53:19.052Z,188.07
2017-09-27T05:55:46.652Z,276.67
2017-09-27T05:58:15.760Z,119.90
2017-09-27T06:00:43.353Z,152.87
2017-09-27T06:03:10.924Z,120.50
2017-09-27T06:05:38.520Z,158.37
2017-09-27T06:08:06.093Z,116.47
2017-09-27T06:10:33.764Z,159.73
2017-09-27T06:13:03.885Z,164.13
2017-09-27T06:15:31.548Z,148.62
2017-09-27T06:17:59.392Z,188.40
2017-09-27T06:20:26.984Z,143.03
2017-09-27T06:22:54.556Z,167.53
2017-09-27T06:25:23.016Z,249.13
2017-09-27T06:27:50.585Z,341.63
2017-09-27T06:30:18.203Z,289.90
2017-09-27T06:32:45.781Z,314.23
2017-09-27T06:35:13.375Z,189.20
2017-09-27T06:37:41.779Z,336.27
2017-09-27T06:40:10.220Z,310.13
2017-09-27T06:42:37.884Z,340.75
2017-09-27T06:45:06.226Z,264.70
2017-09-27T06:47:33.828Z,271.00
2017-09-27T06:50:04.132Z,298.27
2017-09-27T06:52:31.731Z,219.53
2017-09-27T06:55:00.305Z,218.87
2017-09-27T06:57:28.673Z,153.37
2017-09-27T06:59:56.246Z,204.13
2017-09-27T07:02:24.609Z,162.23
2017-09-27T07:04:52.180Z,151.23
2017-09-27T07:07:19.935Z,147.13
2017-09-27T07:09:47.508Z,135.17
2017-09-27T07:12:15.884Z,185.70
2017-09-27T07:14:43.517Z,221.93
2017-09-27T07:17:11.104Z,187.20
2017-09-27T07:19:38.716Z,158.73
2017-09-27T07:22:06.328Z,131.37
2017-09-27T07:24:33.991Z,138.57
2017-09-27T07:27:03.069Z,165.57
2017-09-27T07:29:31.083Z,225.30
2017-09-27T07:31:59.445Z,170.40
2017-09-27T07:34:27.784Z,180.07
2017-09-27T07:36:55.384Z,140.27
2017-09-27T07:39:23.732Z,120.77
2017-09-27T07:41:51.415Z,114.73
2017-09-27T07:44:18.993Z,119.90
2017-09-27T07:46:47.360Z,100.33
2017-09-27T07:49:14.937Z,107.50
2017-09-27T07:51:43.717Z,88.43
2017-09-27T07:54:12.055Z,95.65
2017-09-27T07:56:39.624Z,76.17
2017-09-27T07:59:07.224Z,83.93
2017-09-27T08:01:35.583Z,91.83
2017-09-27T08:04:04.197Z,102.53
2017-09-27T08:06:32.528Z,92.93
2017-09-27T08:09:00.097Z,87.07
2017-09-27T08:11:27.700Z,92.93
2017-09-27T08:13:55.273Z,100.53
2017-09-27T08:16:22.869Z,81.47
2017-09-27T08:18:50.447Z,78.93
2017-09-27T08:21:18.116Z,65.80
2017-09-27T08:23:45.696Z,82.07
2017-09-27T08:26:14.055Z,64.23
2017-09-27T08:28:41.628Z,67.77
2017-09-27T08:31:10.100Z,64.70
2017-09-27T08:33:37.764Z,66.03
2017-09-27T08:36:05.383Z,63.37
2017-09-27T08:38:32.980Z,71.20
2017-09-27T08:41:02.697Z,72.00
2017-09-27T08:43:30.355Z,64.97
2017-09-27T08:45:59.515Z,60.60
2017-09-27T08:48:27.116Z,55.17
2017-09-27T08:50:55.449Z,61.87
2017-09-27T08:53:23.061Z,60.47
2017-09-27T08:55:50.907Z,57.50
2017-09-27T08:58:18.508Z,62.10
2017-09-27T09:00:46.843Z,58.43
2017-09-27T09:03:14.439Z,64.12
2017-09-27T09:05:42.772Z,57.60
2017-09-27T09:08:10.464Z,57.35
2017-09-27T09:10:38.124Z,59.73
2017-09-27T09:13:05.730Z,56.37
2017-09-27T09:15:33.384Z,42.23
2017-09-27T09:18:02.828Z,49.47
2017-09-27T09:20:30.515Z,45.40
2017-09-27T09:22:58.183Z,43.90
2017-09-27T09:25:26.269Z,39.93
2017-09-27T09:27:54.636Z,40.57
2017-09-27T09:30:22.233Z,45.23
2017-09-27T09:32:49.804Z,48.27
2017-09-27T09:35:17.408Z,44.23
2017-09-27T09:37:45.072Z,41.60
2017-09-27T09:40:12.644Z,43.35
2017-09-27T09:42:41.003Z,40.23
2017-09-27T09:45:08.575Z,42.58
2017-09-27T09:47:36.169Z,42.40
2017-09-27T09:50:04.061Z,45.05
2017-09-27T09:52:31.657Z,48.50
2017-09-27T09:54:59.228Z,45.80
2017-09-27T09:57:26.826Z,49.07
2017-09-27T09:59:54.392Z,63.23
2017-09-27T10:02:22.780Z,53.77
2017-09-27T10:04:50.349Z,49.53
2017-09-27T10:07:17.920Z,48.97
2017-09-27T10:09:45.512Z,44.03
2017-09-27T10:12:13.109Z,53.63
2017-09-27T10:14:40.704Z,48.40
2017-09-27T10:17:08.304Z,47.72
2017-09-27T10:19:35.900Z,51.70
2017-09-27T10:22:04.852Z,51.05
2017-09-27T10:24:32.463Z,48.73
2017-09-27T10:27:00.042Z,49.77
2017-09-27T10:29:27.736Z,64.20
2017-09-27T10:31:55.312Z,49.67
2017-09-27T10:34:23.672Z,52.73
2017-09-27T10:36:51.339Z,53.50
2017-09-27T10:39:19.116Z,59.10
2017-09-27T10:41:47.451Z,56.90
2017-09-27T10:44:15.021Z,56.60
2017-09-27T10:46:42.611Z,56.00
2017-09-27T10:49:10.264Z,73.47
2017-09-27T10:51:37.832Z,65.93
2017-09-27T10:54:05.696Z,60.35
2017-09-27T10:56:33.352Z,61.27
2017-09-27T10:59:02.940Z,58.55
2017-09-27T11:01:30.533Z,60.67
2017-09-27T11:03:58.104Z,63.40
2017-09-27T11:06:26.459Z,66.03
2017-09-27T11:08:54.844Z,69.00
2017-09-27T11:11:22.517Z,55.47
2017-09-27T11:13:50.892Z,53.87
2017-09-27T11:16:18.964Z,49.20
2017-09-27T11:18:46.625Z,54.37
2017-09-27T11:21:14.214Z,49.65
2017-09-27T11:23:41.811Z,41.13
2017-09-27T11:26:09.392Z,50.13
2017-09-27T11:28:36.989Z,41.30
2017-09-27T11:31:05.325Z,52.30
2017-09-27T11:33:32.921Z,44.47
2017-09-27T11:36:02.904Z,52.53
2017-09-27T11:38:30.587Z,45.50
2017-09-27T11:40:58.164Z,46.43
2017-09-27T11:43:26.728Z,44.43
2017-09-27T11:45:54.294Z,52.80
2017-09-27T11:48:21.865Z,46.37
2017-09-27T11:50:50.229Z,52.20
2017-09-27T11:53:17.800Z,47.20
2017-09-27T11:55:46.172Z,49.00
2017-09-27T11:58:13.936Z,48.50
2017-09-27T12:00:41.596Z,48.90
2017-09-27T12:03:09.265Z,44.30
2017-09-27T12:05:37.613Z,40.77
2017-09-27T12:08:05.308Z,46.43
2017-09-27T12:10:32.880Z,48.57
2017-09-27T12:13:01.848Z,53.97
2017-09-27T12:15:29.440Z,41.50
2017-09-27T12:17:57.080Z,50.40
2017-09-27T12:20:24.752Z,43.37
2017-09-27T12:22:53.163Z,48.03
2017-09-27T12:25:20.741Z,52.17
2017-09-27T12:27:48.349Z,50.30
2017-09-27T12:30:15.924Z,43.77
2017-09-27T12:32:44.297Z,45.90
2017-09-27T12:35:12.649Z,42.05
2017-09-27T12:37:40.328Z,46.77
2017-09-27T12:40:07.933Z,36.90
2017-09-27T12:42:35.516Z,38.70
2017-09-27T12:45:03.933Z,39.67
2017-09-27T12:47:31.500Z,37.90
2017-09-27T12:49:59.972Z,38.57
2017-09-27T12:52:27.635Z,46.07
2017-09-27T12:54:55.300Z,39.80
2017-09-27T12:57:22.960Z,44.20
2017-09-27T12:59:52.389Z,40.83
2017-09-27T13:02:20.753Z,40.22
2017-09-27T13:04:49.108Z,50.20
2017-09-27T13:07:16.705Z,45.30
2017-09-27T13:09:45.045Z,45.80
2017-09-27T13:12:12.643Z,45.78
2017-09-27T13:14:41.008Z,49.67
2017-09-27T13:17:08.608Z,46.76
2017-09-27T13:19:36.180Z,48.47
2017-09-27T13:22:04.845Z,48.00
2017-09-27T13:24:32.423Z,45.20
2017-09-27T13:27:00.001Z,42.87
2017-09-27T13:29:27.683Z,47.93
2017-09-27T13:31:55.251Z,41.73
2017-09-27T13:34:22.848Z,45.40
2017-09-27T13:36:50.415Z,50.50
2017-09-27T13:39:18.014Z,45.30
2017-09-27T13:41:45.580Z,52.37
2017-09-27T13:44:13.171Z,51.17
2017-09-27T13:46:41.510Z,52.63
2017-09-27T13:49:09.112Z,52.60
2017-09-27T13:51:37.447Z,50.43
2017-09-27T13:54:05.144Z,51.73
2017-09-27T13:56:32.716Z,49.60
2017-09-27T13:59:01.995Z,58.77
2017-09-27T14:01:29.570Z,51.90
2017-09-27T14:03:57.932Z,54.03
2017-09-27T14:06:25.510Z,57.67
2017-09-27T14:08:53.112Z,51.53
2017-09-27T14:11:20.683Z,55.28
2017-09-27T14:13:48.284Z,48.37
2017-09-27T14:16:15.856Z,46.20
2017-09-27T14:18:44.211Z,44.50
2017-09-27T14:21:11.795Z,47.45
2017-09-27T14:23:40.264Z,47.60
2017-09-27T14:26:07.937Z,48.90
2017-09-27T14:28:35.588Z,46.17
2017-09-27T14:31:04.861Z,50.90
2017-09-27T14:33:32.453Z,50.07
2017-09-27T14:36:00.049Z,50.67
2017-09-27T14:38:27.681Z,51.40
2017-09-27T14:40:55.336Z,49.63
2017-09-27T14:43:23.009Z,51.47
2017-09-27T14:45:50.764Z,50.87
2017-09-27T14:48:18.433Z,47.20
2017-09-27T14:50:46.300Z,48.33
2017-09-27T14:53:13.877Z,57.27
2017-09-27T14:55:42.212Z,55.40
2017-09-27T14:58:09.812Z,53.25
2017-09-27T15:00:38.144Z,55.63
2017-09-27T15:03:05.745Z,45.60
2017-09-27T15:05:33.640Z,48.22
2017-09-27T15:08:03.012Z,61.93
2017-09-27T15:10:30.759Z,46.67
2017-09-27T15:12:58.446Z,52.40
2017-09-27T15:15:26.792Z,48.70
2017-09-27T15:17:54.476Z,49.23
2017-09-27T15:20:22.049Z,49.23
2017-09-27T15:22:50.417Z,53.70
2017-09-27T15:25:18.076Z,56.15
2017-09-27T15:27:46.465Z,56.03
2017-09-27T15:30:14.041Z,64.27
2017-09-27T15:32:42.645Z,56.60
2017-09-27T15:35:10.216Z,56.00
2017-09-27T15:37:37.812Z,78.43
2017-09-27T15:40:05.389Z,63.93
2017-09-27T15:42:35.109Z,70.30
2017-09-27T15:45:03.992Z,65.43
2017-09-27T15:47:32.324Z,70.00
2017-09-27T15:49:59.920Z,70.87
2017-09-27T15:52:27.496Z,75.80
2017-09-27T15:54:55.474Z,76.33
2017-09-27T15:57:23.844Z,67.37
2017-09-27T15:59:51.413Z,62.83
2017-09-27T16:02:19.773Z,65.13
2017-09-27T16:04:47.352Z,62.43
2017-09-27T16:07:15.736Z,70.60
2017-09-27T16:09:44.100Z,67.53
2017-09-27T16:12:11.714Z,70.93
2017-09-27T16:14:39.292Z,69.13
2017-09-27T16:17:06.881Z,71.07
2017-09-27T16:19:34.486Z,78.03
2017-09-27T16:22:03.928Z,83.80
2017-09-27T16:24:31.611Z,75.93
2017-09-27T16:26:59.944Z,71.83
2017-09-27T16:29:28.356Z,80.60
2017-09-27T16:31:55.931Z,87.57
2017-09-27T16:34:23.545Z,83.07
2017-09-27T16:36:51.156Z,81.80
2017-09-27T16:39:18.741Z,81.87
2017-09-27T16:41:46.356Z,92.00
2017-09-27T16:44:14.041Z,89.97
2017-09-27T16:46:41.650Z,87.57
2017-09-27T16:49:09.231Z,76.20
2017-09-27T16:51:36.839Z,97.40
2017-09-27T16:54:05.176Z,100.83
2017-09-27T16:56:32.768Z,80.83
2017-09-27T16:59:02.062Z,85.83
2017-09-27T17:01:29.630Z,89.77
2017-09-27T17:03:57.988Z,83.67
2017-09-27T17:06:25.557Z,87.83
2017-09-27T17:08:53.940Z,89.50
2017-09-27T17:11:21.612Z,96.45
2017-09-27T17:13:49.989Z,85.75
2017-09-27T17:16:17.583Z,96.70
2017-09-27T17:18:45.157Z,90.38
2017-09-27T17:21:12.748Z,95.70
2017-09-27T17:23:40.428Z,93.93
2017-09-27T17:26:08.104Z,98.65
2017-09-27T17:28:36.453Z,99.33
2017-09-27T17:31:04.957Z,84.72
2017-09-27T17:33:32.552Z,86.23
2017-09-27T17:36:00.124Z,97.90
2017-09-27T17:38:27.745Z,94.80
2017-09-27T17:40:56.485Z,85.57
2017-09-27T17:43:24.060Z,96.60
2017-09-27T17:45:51.668Z,89.90
2017-09-27T17:48:20.009Z,94.60
2017-09-27T17:50:47.687Z,94.57
2017-09-27T17:53:16.776Z,90.07
2017-09-27T17:55:44.351Z,92.50
2017-09-27T17:58:11.960Z,98.87
2017-09-27T18:00:39.544Z,84.00
2017-09-27T18:03:07.237Z,91.65
2017-09-27T18:05:40.970Z,92.33
2017-09-27T18:11:14.704Z,99.67
2017-09-27T18:13:48.072Z,103.13
2017-09-27T18:16:19.876Z,97.85
2017-09-27T18:18:48.420Z,96.83
2017-09-27T18:21:16.765Z,91.70
2017-09-27T18:23:44.360Z,97.00
2017-09-27T18:26:12.706Z,94.40
2017-09-27T18:28:40.316Z,99.30
2017-09-27T18:31:08.006Z,113.50
2017-09-27T18:33:35.607Z,111.93
2017-09-27T18:36:05.013Z,103.10
2017-09-27T18:38:32.590Z,109.13
2017-09-27T18:41:01.870Z,94.57
2017-09-27T18:43:29.449Z,94.60
2017-09-27T18:45:57.828Z,103.80
2017-09-27T18:48:26.469Z,96.27
2017-09-27T18:50:54.040Z,101.77
2017-09-27T18:53:21.730Z,106.03
2017-09-27T18:55:50.100Z,95.50
2017-09-27T18:58:17.692Z,105.73
2017-09-27T19:00:45.265Z,113.12
2017-09-27T19:03:12.880Z,117.27
2017-09-27T19:05:40.549Z,115.53
2017-09-27T19:08:08.230Z,116.60
2017-09-27T19:10:37.427Z,119.57
2017-09-27T19:13:05.852Z,132.00
2017-09-27T19:15:33.481Z,116.80
2017-09-27T19:18:02.833Z,128.13
2017-09-27T19:20:30.468Z,114.70
2017-09-27T19:22:58.048Z,97.93
2017-09-27T19:25:25.624Z,113.70
2017-09-27T19:27:53.257Z,108.63
2017-09-27T19:30:20.841Z,105.15
2017-09-27T19:32:48.519Z,114.13
2017-09-27T19:35:16.099Z,115.60
2017-09-27T19:37:44.489Z,113.93
2017-09-27T19:40:12.843Z,108.68
2017-09-27T19:42:40.427Z,113.03
2017-09-27T19:45:08.885Z,98.97
2017-09-27T19:47:36.456Z,114.20
2017-09-27T19:50:04.080Z,133.30
2017-09-27T19:52:31.671Z,115.47
2017-09-27T19:54:59.283Z,131.63
2017-09-27T19:57:26.857Z,139.10
2017-09-27T19:59:54.496Z,120.87
2017-09-27T20:02:22.312Z,141.10
2017-09-27T20:04:49.886Z,163.03
2017-09-27T20:07:18.354Z,133.65
2017-09-27T20:09:46.740Z,132.00
2017-09-27T20:12:15.132Z,130.60
2017-09-27T20:14:43.504Z,129.63
2017-09-27T20:17:11.081Z,130.12
2017-09-27T20:19:39.440Z,135.60
2017-09-27T20:22:07.109Z,148.00
2017-09-27T20:24:34.700Z,152.53
2017-09-27T20:27:04.876Z,140.25
2017-09-27T20:29:32.492Z,143.03
2017-09-27T20:32:01.033Z,143.37
2017-09-27T20:34:29.372Z,142.43
2017-09-27T20:36:56.968Z,136.17
2017-09-27T20:39:24.546Z,145.63
2017-09-27T20:41:52.912Z,149.17
2017-09-27T20:44:20.492Z,132.43
2017-09-27T20:46:48.884Z,140.37
2017-09-27T20:49:16.456Z,127.20
2017-09-27T20:51:44.072Z,131.13
2017-09-27T20:54:11.735Z,134.43
2017-09-27T20:56:39.312Z,136.30
2017-09-27T20:59:07.783Z,153.80
2017-09-27T21:01:36.128Z,145.13
2017-09-27T21:04:04.097Z,149.57
2017-09-27T21:06:31.668Z,135.80
2017-09-27T21:08:59.246Z,147.77
2017-09-27T21:11:28.349Z,162.77
2017-09-27T21:13:56.156Z,152.43
2017-09-27T21:16:23.767Z,150.53
2017-09-27T21:18:51.335Z,151.13
2017-09-27T21:21:18.931Z,157.90
2017-09-27T21:23:46.532Z,170.07
2017-09-27T21:26:14.169Z,179.20
2017-09-27T21:28:41.769Z,171.67
2017-09-27T21:31:09.356Z,171.73
2017-09-27T21:33:37.715Z,173.57
2017-09-27T21:36:05.299Z,167.33
2017-09-27T21:38:33.761Z,172.13
2017-09-27T21:41:03.145Z,172.30
2017-09-27T21:43:30.745Z,183.23
2017-09-27T21:45:59.084Z,174.83
2017-09-27T21:48:26.688Z,174.20
2017-09-27T21:50:55.045Z,169.60
2017-09-27T21:53:22.712Z,174.27
2017-09-27T21:55:50.288Z,165.23
2017-09-27T21:58:18.743Z,181.98
2017-09-27T22:00:46.319Z,184.57
2017-09-27T22:03:14.657Z,165.23
2017-09-27T22:05:42.257Z,169.17
2017-09-27T22:08:10.645Z,165.77
2017-09-27T22:10:39.008Z,157.07
2017-09-27T22:13:07.359Z,156.37
2017-09-27T22:15:34.965Z,159.00
2017-09-27T22:18:04.851Z,161.80
2017-09-27T22:20:32.452Z,150.13
2017-09-27T22:23:01.720Z,163.00
2017-09-27T22:25:29.325Z,143.83
2017-09-27T22:27:56.902Z,142.73
2017-09-27T22:30:24.510Z,161.00
2017-09-27T22:32:52.848Z,156.27
2017-09-27T22:35:20.454Z,162.32
2017-09-27T22:37:48.796Z,176.00
2017-09-27T22:40:16.497Z,160.40
2017-09-27T22:42:44.840Z,158.47
2017-09-27T22:45:12.436Z,166.23
2017-09-27T22:47:40.790Z,151.17
2017-09-27T22:50:08.670Z,145.20
2017-09-27T22:52:36.253Z,149.90
2017-09-27T22:55:04.203Z,157.53
2017-09-27T22:57:31.801Z,160.20
2017-09-27T22:59:59.404Z,159.07
2017-09-27T23:02:27.012Z,158.37
2017-09-27T23:04:55.352Z,149.53
2017-09-27T23:07:22.948Z,149.93
2017-09-27T23:09:51.314Z,172.47
2017-09-27T23:12:19.679Z,153.53
2017-09-27T23:14:47.276Z,163.27
2017-09-27T23:17:14.849Z,185.45
2017-09-27T23:19:42.448Z,164.27
2017-09-27T23:22:10.033Z,157.77
2017-09-27T23:24:38.032Z,172.70
2017-09-27T23:27:05.607Z,158.30
2017-09-27T23:29:33.224Z,186.43
2017-09-27T23:32:02.218Z,186.48
2017-09-27T23:34:29.799Z,208.93
2017-09-27T23:36:58.162Z,223.10
2017-09-27T23:39:25.731Z,216.87
2017-09-27T23:41:54.102Z,242.50
2017-09-27T23:44:21.676Z,249.55
2017-09-27T23:46:50.224Z,205.70
2017-09-27T23:49:17.804Z,270.92
2017-09-27T23:51:46.195Z,251.00
2017-09-27T23:54:14.579Z,286.80
2017-09-27T23:56:42.940Z,289.87
2017-09-27T23:59:10.600Z,285.53
